Time;durP1;ratioP1;P1;durP2;ratioP2;P2;SDS_P1;SDS_P2;PMS_P1;PMS_P2;Temp;Humidity;BMP_temperature;BMP_pressure;BME280_temperature;BME280_humidity;BME280_pressure;Samples;Min_cycle;Max_cycle;Signal;HPM_P1;HPM_P2
2023/07/14 00:00:08;;;;;;;2.30;1.10;;;;;;;;;;5030209;28;20210;-27
2023/07/14 00:02:35;;;;;;;1.55;1.35;;;;;;;;;;5030649;28;20343;-29
2023/07/14 00:05:03;;;;;;;3.20;1.35;;;;;;;;;;5029619;28;20209;-27
2023/07/14 00:07:30;;;;;;;1.58;1.48;;;;;;;;;;5029935;28;20214;-30
2023/07/14 00:09:57;;;;;;;1.35;1.25;;;;;;;;;;5033211;28;20272;-30
2023/07/14 00:12:24;;;;;;;2.63;1.73;;;;;;;;;;5035821;28;20270;-30
2023/07/14 00:14:51;;;;;;;1.17;1.08;;;;;;;;;;5035988;28;20682;-28
2023/07/14 00:17:20;;;;;;;1.95;1.42;;;;;;;;;;5033715;28;20228;-28
2023/07/14 00:19:47;;;;;;;9.27;1.63;;;;;;;;;;5032804;28;20231;-30
2023/07/14 00:22:15;;;;;;;2.35;1.30;;;;;;;;;;5128313;22;20248;-29
2023/07/14 00:24:42;;;;;;;1.35;1.05;;;;;;;;;;5032539;28;20213;-30
2023/07/14 00:27:17;;;;;;;3.17;1.60;;;;;;;;;;5032183;28;20256;-27
2023/07/14 00:29:45;;;;;;;1.88;1.50;;;;;;;;;;5032775;28;20236;-29
2023/07/14 00:32:13;;;;;;;5.75;1.45;;;;;;;;;;5033569;28;20226;-28
2023/07/14 00:34:42;;;;;;;1.90;1.30;;;;;;;;;;5034358;28;20198;-27
2023/07/14 00:37:09;;;;;;;2.38;1.10;;;;;;;;;;5034314;28;20564;-27
2023/07/14 00:39:36;;;;;;;1.98;1.30;;;;;;;;;;5032832;28;20353;-29
2023/07/14 00:42:07;;;;;;;3.50;1.10;;;;;;;;;;5032266;28;20215;-29
2023/07/14 00:44:35;;;;;;;1.88;1.20;;;;;;;;;;5032435;28;20206;-30
2023/07/14 00:47:02;;;;;;;1.50;1.40;;;;;;;;;;5032158;28;20268;-29
2023/07/14 00:49:33;;;;;;;1.67;1.50;;;;;;;;;;5031174;28;20222;-32
2023/07/14 00:52:05;;;;;;;4.70;1.38;;;;;;;;;;5032394;28;20514;-29
2023/07/14 00:54:32;;;;;;;5.07;1.50;;;;;;;;;;5032585;28;20236;-28
2023/07/14 00:57:00;;;;;;;1.73;1.40;;;;;;;;;;5030900;28;20206;-29
2023/07/14 00:59:33;;;;;;;2.58;1.50;;;;;;;;;;5032385;28;20231;-27
2023/07/14 01:02:16;;;;;;;1.53;1.33;;;;;;;;;;5031022;28;20191;-29
2023/07/14 01:04:45;;;;;;;1.67;1.40;;;;;;;;;;5031450;28;20216;-29
2023/07/14 01:07:16;;;;;;;2.10;1.33;;;;;;;;;;5031133;28;20208;-30
2023/07/14 01:09:43;;;;;;;2.10;1.33;;;;;;;;;;5029949;28;20280;-27
2023/07/14 01:12:12;;;;;;;1.23;1.13;;;;;;;;;;5031575;28;20207;-31
2023/07/14 01:14:42;;;;;;;1.37;1.27;;;;;;;;;;5032009;28;20297;-30
2023/07/14 01:17:10;;;;;;;1.40;1.30;;;;;;;;;;5031821;28;20302;-29
2023/07/14 01:19:40;;;;;;;2.87;1.77;;;;;;;;;;5029896;28;20235;-28
2023/07/14 01:22:11;;;;;;;1.50;1.33;;;;;;;;;;5303698;22;20237;-27
2023/07/14 01:24:46;;;;;;;1.60;1.30;;;;;;;;;;5031894;28;20202;-28
2023/07/14 01:27:14;;;;;;;3.13;1.43;;;;;;;;;;5031367;28;20284;-28
2023/07/14 01:29:43;;;;;;;2.33;1.47;;;;;;;;;;5031732;28;20341;-28
2023/07/14 01:32:14;;;;;;;2.43;1.43;;;;;;;;;;5032145;28;20202;-28
2023/07/14 01:34:41;;;;;;;2.17;1.20;;;;;;;;;;5030990;28;20664;-26
2023/07/14 01:37:09;;;;;;;1.73;1.20;;;;;;;;;;5031495;28;20208;-28
2023/07/14 01:39:36;;;;;;;2.00;1.40;;;;;;;;;;5031412;28;20230;-29
2023/07/14 01:42:03;;;;;;;1.33;1.23;;;;;;;;;;5030876;28;20202;-31
2023/07/14 01:44:33;;;;;;;2.67;1.50;;;;;;;;;;5032148;28;20213;-27
2023/07/14 01:47:01;;;;;;;2.53;1.60;;;;;;;;;;5031004;28;20264;-29
2023/07/14 01:49:35;;;;;;;1.70;1.27;;;;;;;;;;5030505;28;20253;-26
2023/07/14 01:52:04;;;;;;;2.50;1.50;;;;;;;;;;5031389;28;20269;-29
2023/07/14 01:54:34;;;;;;;2.05;1.83;;;;;;;;;;5030976;28;20206;-28
2023/07/14 01:57:03;;;;;;;1.23;1.13;;;;;;;;;;5030333;28;20213;-28
2023/07/14 01:59:34;;;;;;;1.90;1.60;;;;;;;;;;5030797;28;20238;-29
2023/07/14 02:02:01;;;;;;;2.23;1.20;;;;;;;;;;5031196;28;20195;-29
2023/07/14 02:04:31;;;;;;;1.20;1.20;;;;;;;;;;5030088;28;20203;-28
2023/07/14 02:07:01;;;;;;;1.87;1.50;;;;;;;;;;5030820;28;20268;-31
2023/07/14 02:09:29;;;;;;;1.43;1.33;;;;;;;;;;5031144;28;20214;-27
2023/07/14 02:11:58;;;;;;;2.67;1.67;;;;;;;;;;5029494;28;20207;-28
2023/07/14 02:14:26;;;;;;;1.83;1.30;;;;;;;;;;5030689;28;20447;-29
2023/07/14 02:16:57;;;;;;;2.00;1.37;;;;;;;;;;5030840;28;20211;-25
2023/07/14 02:19:26;;;;;;;1.47;1.30;;;;;;;;;;5030395;28;20253;-27
2023/07/14 02:21:54;;;;;;;2.60;1.80;;;;;;;;;;5030905;28;20218;-29
2023/07/14 02:24:22;;;;;;;2.20;1.70;;;;;;;;;;5030798;28;20289;-28
2023/07/14 02:26:52;;;;;;;1.63;1.53;;;;;;;;;;5029426;28;20301;-28
2023/07/14 02:29:20;;;;;;;3.03;1.60;;;;;;;;;;5030608;28;20230;-29
2023/07/14 02:31:50;;;;;;;2.07;1.50;;;;;;;;;;5030170;28;20214;-29
2023/07/14 02:34:19;;;;;;;1.75;1.38;;;;;;;;;;5030350;28;20194;-27
2023/07/14 02:36:56;;;;;;;1.20;1.10;;;;;;;;;;5029875;28;20224;-29
2023/07/14 02:39:23;;;;;;;1.57;1.37;;;;;;;;;;5030262;28;20224;-29
2023/07/14 02:41:53;;;;;;;1.30;1.20;;;;;;;;;;5029381;28;20209;-31
2023/07/14 02:44:21;;;;;;;1.70;1.20;;;;;;;;;;5030988;28;20210;-28
2023/07/14 02:46:49;;;;;;;2.10;1.23;;;;;;;;;;5030112;28;20207;-28
2023/07/14 02:49:17;;;;;;;1.50;1.40;;;;;;;;;;5029964;28;20226;-28
2023/07/14 02:51:45;;;;;;;2.07;1.43;;;;;;;;;;5030091;28;20690;-28
2023/07/14 02:54:12;;;;;;;1.80;1.50;;;;;;;;;;5030495;28;20251;-29
2023/07/14 02:56:39;;;;;;;2.03;1.50;;;;;;;;;;5029081;28;20687;-27
2023/07/14 02:59:07;;;;;;;2.80;1.57;;;;;;;;;;5030319;28;20234;-26
2023/07/14 03:01:35;;;;;;;1.87;1.40;;;;;;;;;;5030839;28;20210;-29
2023/07/14 03:04:02;;;;;;;2.63;1.60;;;;;;;;;;5030145;28;20206;-27
2023/07/14 03:06:29;;;;;;;2.43;1.60;;;;;;;;;;5029919;28;20216;-28
2023/07/14 03:08:58;;;;;;;3.67;1.30;;;;;;;;;;5030531;28;20299;-28
2023/07/14 03:11:25;;;;;;;3.03;1.53;;;;;;;;;;5028776;28;20225;-29
2023/07/14 03:13:52;;;;;;;4.23;1.70;;;;;;;;;;5032127;28;20216;-29
2023/07/14 03:16:20;;;;;;;2.90;1.40;;;;;;;;;;5033377;28;20555;-27
2023/07/14 03:18:48;;;;;;;1.33;1.20;;;;;;;;;;5030509;28;20226;-26
2023/07/14 03:21:15;;;;;;;1.50;1.27;;;;;;;;;;5030613;28;20209;-29
2023/07/14 03:23:42;;;;;;;3.43;1.77;;;;;;;;;;5030806;28;20280;-27
2023/07/14 03:26:11;;;;;;;2.13;1.50;;;;;;;;;;5029848;28;20205;-28
2023/07/14 03:28:39;;;;;;;1.80;1.50;;;;;;;;;;5029907;28;20234;-26
2023/07/14 03:31:06;;;;;;;2.60;1.70;;;;;;;;;;5030186;28;20231;-27
2023/07/14 03:33:34;;;;;;;2.10;1.63;;;;;;;;;;5029775;28;20210;-27
2023/07/14 03:36:04;;;;;;;1.80;1.30;;;;;;;;;;5029578;28;20207;-26
2023/07/14 03:38:31;;;;;;;1.60;1.30;;;;;;;;;;5029949;28;20233;-28
2023/07/14 03:40:59;;;;;;;1.63;1.53;;;;;;;;;;5028298;28;20210;-29
2023/07/14 03:51:11;;;;;;;4.17;1.60;;;;;;;;;;5054127;28;20756;-25
2023/07/14 03:53:38;;;;;;;1.40;1.30;;;;;;;;;;5057034;28;20209;-27
2023/07/14 03:56:05;;;;;;;4.87;1.70;;;;;;;;;;5056520;28;20652;-28
2023/07/14 04:11:25;;;;;;;4.07;1.30;;;;;;;;;;5054954;28;20737;-28
2023/07/14 04:13:52;;;;;;;3.93;1.40;;;;;;;;;;5056802;28;20227;-25
2023/07/14 04:16:23;;;;;;;1.60;1.50;;;;;;;;;;5056950;28;20244;-28
2023/07/14 04:29:00;;;;;;;1.80;1.53;;;;;;;;;;5051300;28;20232;-27
2023/07/14 04:31:29;;;;;;;1.70;1.53;;;;;;;;;;5052849;28;20729;-27
2023/07/14 04:33:56;;;;;;;2.60;1.60;;;;;;;;;;5052337;28;20262;-28
2023/07/14 04:36:23;;;;;;;2.23;1.63;;;;;;;;;;5052144;28;20215;-29
2023/07/14 04:39:01;;;;;;;1.40;1.30;;;;;;;;;;5052814;28;20240;-29
2023/07/14 04:41:28;;;;;;;1.53;1.43;;;;;;;;;;5051249;28;20259;-26
2023/07/14 04:43:55;;;;;;;2.37;1.30;;;;;;;;;;5053817;28;20216;-27
2023/07/14 04:46:24;;;;;;;3.27;1.57;;;;;;;;;;5054093;28;20209;-29
2023/07/14 04:48:51;;;;;;;1.57;1.43;;;;;;;;;;5053926;28;20232;-27
2023/07/14 04:51:18;;;;;;;3.30;1.50;;;;;;;;;;5053150;28;20601;-27
2023/07/14 04:53:45;;;;;;;3.83;1.50;;;;;;;;;;5052640;28;20244;-28
2023/07/14 04:56:12;;;;;;;1.83;1.47;;;;;;;;;;5051780;28;20223;-29
2023/07/14 04:58:40;;;;;;;1.97;1.57;;;;;;;;;;5052132;28;20240;-27
2023/07/14 05:01:07;;;;;;;2.03;1.83;;;;;;;;;;5053361;28;20210;-29
2023/07/14 05:03:36;;;;;;;4.30;1.87;;;;;;;;;;5053945;28;20201;-29
2023/07/14 05:06:03;;;;;;;2.00;1.70;;;;;;;;;;5054096;28;20202;-26
2023/07/14 05:08:30;;;;;;;3.90;1.90;;;;;;;;;;5054724;28;20293;-28
2023/07/14 05:10:57;;;;;;;3.43;1.90;;;;;;;;;;5053082;28;20566;-29
2023/07/14 05:13:25;;;;;;;1.50;1.40;;;;;;;;;;5054443;28;20293;-26
2023/07/14 05:15:52;;;;;;;1.60;1.50;;;;;;;;;;5054541;28;20231;-27
2023/07/14 05:18:19;;;;;;;2.00;1.70;;;;;;;;;;5052331;28;20225;-30
2023/07/14 05:20:48;;;;;;;3.67;1.83;;;;;;;;;;5051992;28;20615;-26
2023/07/14 05:23:16;;;;;;;2.00;1.80;;;;;;;;;;5051937;28;20216;-26
2023/07/14 05:25:43;;;;;;;3.07;2.77;;;;;;;;;;5050944;28;20214;-26
2023/07/14 05:28:10;;;;;;;2.80;2.40;;;;;;;;;;5051088;28;20241;-27
2023/07/14 05:30:37;;;;;;;2.70;2.50;;;;;;;;;;5051705;28;20212;-28
2023/07/14 05:33:04;;;;;;;2.40;2.20;;;;;;;;;;5051123;28;20216;-29
2023/07/14 05:35:31;;;;;;;3.53;2.60;;;;;;;;;;5051792;28;20586;-26
2023/07/14 05:38:00;;;;;;;2.20;2.10;;;;;;;;;;5051465;28;20224;-28
2023/07/14 05:40:27;;;;;;;2.83;2.20;;;;;;;;;;5050372;28;20316;-26
2023/07/14 05:42:55;;;;;;;4.07;2.50;;;;;;;;;;5051389;28;20263;-27
2023/07/14 05:45:22;;;;;;;2.07;1.97;;;;;;;;;;5051342;28;20656;-29
2023/07/14 05:47:49;;;;;;;4.13;2.37;;;;;;;;;;5050350;28;20228;-28
2023/07/14 05:50:17;;;;;;;3.17;1.90;;;;;;;;;;5051216;28;20714;-26
2023/07/14 05:52:44;;;;;;;4.27;2.20;;;;;;;;;;5051251;28;20216;-27
2023/07/14 05:55:13;;;;;;;1.87;1.77;;;;;;;;;;5050441;28;20220;-26
2023/07/14 05:57:40;;;;;;;3.23;2.10;;;;;;;;;;5050818;28;20209;-29
2023/07/14 06:00:13;;;;;;;3.40;2.10;;;;;;;;;;5051089;28;20226;-27
2023/07/14 06:02:40;;;;;;;4.87;1.87;;;;;;;;;;5051293;28;20281;-27
2023/07/14 06:05:07;;;;;;;2.40;1.87;;;;;;;;;;5050131;28;20668;-27
2023/07/14 06:07:35;;;;;;;2.03;1.75;;;;;;;;;;5050628;28;20211;-27
2023/07/14 06:10:02;;;;;;;3.97;2.20;;;;;;;;;;5049941;28;20209;-27
2023/07/14 06:12:31;;;;;;;1.95;1.85;;;;;;;;;;5050952;28;20206;-28
2023/07/14 06:14:58;;;;;;;7.25;1.95;;;;;;;;;;5051375;28;20206;-29
2023/07/14 06:17:25;;;;;;;8.70;2.38;;;;;;;;;;5052495;28;20679;-27
2023/07/14 06:19:52;;;;;;;3.10;2.20;;;;;;;;;;5052629;28;20699;-28
2023/07/14 06:22:20;;;;;;;2.67;1.80;;;;;;;;;;5051687;28;20209;-29
2023/07/14 06:24:48;;;;;;;3.90;2.00;;;;;;;;;;5049893;28;20205;-29
2023/07/14 06:27:15;;;;;;;2.10;1.83;;;;;;;;;;5050905;28;20222;-29
2023/07/14 06:29:45;;;;;;;2.88;2.00;;;;;;;;;;5050058;28;20753;-30
2023/07/14 06:32:12;;;;;;;2.75;1.85;;;;;;;;;;5050764;28;20201;-30
2023/07/14 06:34:39;;;;;;;4.47;2.05;;;;;;;;;;5049885;28;20214;-27
2023/07/14 06:37:07;;;;;;;5.85;2.25;;;;;;;;;;5049871;28;20205;-26
2023/07/14 06:39:34;;;;;;;3.40;1.92;;;;;;;;;;5049923;28;20240;-27
2023/07/14 06:42:01;;;;;;;3.60;2.20;;;;;;;;;;5048991;28;20365;-28
2023/07/14 06:44:28;;;;;;;2.50;1.73;;;;;;;;;;5050301;28;20212;-30
2023/07/14 06:46:56;;;;;;;4.03;2.33;;;;;;;;;;5049902;28;20216;-28
2023/07/14 06:49:24;;;;;;;3.95;2.22;;;;;;;;;;5049357;28;20310;-27
2023/07/14 06:51:51;;;;;;;3.97;1.88;;;;;;;;;;5050088;28;20205;-29
2023/07/14 06:54:18;;;;;;;3.45;2.13;;;;;;;;;;5050881;28;20217;-28
2023/07/14 06:56:45;;;;;;;2.05;1.85;;;;;;;;;;5048123;28;20232;-27
2023/07/14 06:59:12;;;;;;;2.53;1.80;;;;;;;;;;5050147;28;20231;-29
2023/07/14 07:01:39;;;;;;;2.05;1.90;;;;;;;;;;5049447;28;20212;-29
2023/07/14 07:04:08;;;;;;;3.40;1.70;;;;;;;;;;5050333;28;20635;-25
2023/07/14 07:06:35;;;;;;;2.83;1.80;;;;;;;;;;5049798;28;20218;-26
2023/07/14 07:09:02;;;;;;;3.97;1.90;;;;;;;;;;5049660;28;20323;-28
2023/07/14 07:11:30;;;;;;;2.67;1.95;;;;;;;;;;5049254;28;20208;-30
2023/07/14 07:13:57;;;;;;;2.78;1.70;;;;;;;;;;5051474;28;20247;-29
2023/07/14 07:16:24;;;;;;;3.35;1.65;;;;;;;;;;5052055;28;20198;-29
2023/07/14 07:18:51;;;;;;;3.78;2.08;;;;;;;;;;5053334;28;20229;-27
2023/07/14 07:21:20;;;;;;;3.85;1.90;;;;;;;;;;5056159;28;20221;-29
2023/07/14 07:23:47;;;;;;;4.47;2.42;;;;;;;;;;5055812;28;20285;-28
2023/07/14 07:26:14;;;;;;;1.75;1.63;;;;;;;;;;5054363;28;20213;-33
2023/07/14 07:28:41;;;;;;;4.05;1.80;;;;;;;;;;5053746;28;20238;-32
2023/07/14 07:31:11;;;;;;;2.00;1.52;;;;;;;;;;5054227;28;20219;-30
2023/07/14 07:33:38;;;;;;;4.20;1.90;;;;;;;;;;5053673;28;20209;-31
2023/07/14 07:36:14;;;;;;;6.00;1.50;;;;;;;;;;5054721;28;20212;-31
2023/07/14 07:38:45;;;;;;;2.65;1.55;;;;;;;;;;5055545;28;20298;-32
2023/07/14 07:41:12;;;;;;;2.88;1.67;;;;;;;;;;5053773;28;20357;-30
2023/07/14 07:43:39;;;;;;;2.80;1.50;;;;;;;;;;5055661;28;20201;-34
2023/07/14 07:46:06;;;;;;;3.25;1.60;;;;;;;;;;5055667;28;20213;-29
2023/07/14 07:48:33;;;;;;;6.22;2.38;;;;;;;;;;5054992;28;20222;-32
2023/07/14 07:51:00;;;;;;;6.10;1.70;;;;;;;;;;5056067;28;20198;-32
2023/07/14 07:53:27;;;;;;;1.50;1.35;;;;;;;;;;5056163;28;20212;-33
2023/07/14 07:55:56;;;;;;;5.57;1.80;;;;;;;;;;5055045;28;20212;-31
2023/07/14 08:01:28;;;;;;;3.05;1.40;;;;;;;;;;5055026;28;20335;-32
2023/07/14 08:03:55;;;;;;;2.25;1.38;;;;;;;;;;5055993;28;20255;-34
2023/07/14 08:06:24;;;;;;;3.15;1.20;;;;;;;;;;5053654;28;20213;-32
2023/07/14 08:08:51;;;;;;;1.60;1.50;;;;;;;;;;5052197;28;20255;-29
2023/07/14 08:11:20;;;;;;;1.65;1.20;;;;;;;;;;5055200;28;20252;-33
2023/07/14 08:13:48;;;;;;;7.63;1.40;;;;;;;;;;5055235;28;20312;-31
2023/07/14 08:16:15;;;;;;;4.10;1.58;;;;;;;;;;5053391;28;20459;-31
2023/07/14 08:18:43;;;;;;;1.60;1.25;;;;;;;;;;5052483;28;20222;-32
2023/07/14 08:21:13;;;;;;;2.53;1.30;;;;;;;;;;5053840;28;20660;-30
2023/07/14 08:23:40;;;;;;;2.42;1.30;;;;;;;;;;5053673;28;20222;-32
2023/07/14 08:26:08;;;;;;;3.60;1.35;;;;;;;;;;5052051;28;20605;-33
2023/07/14 08:28:36;;;;;;;2.35;1.30;;;;;;;;;;5052591;28;20240;-28
2023/07/14 08:31:06;;;;;;;2.95;1.13;;;;;;;;;;5053324;28;20206;-32
2023/07/14 08:33:33;;;;;;;2.80;1.20;;;;;;;;;;5053284;28;20706;-31
2023/07/14 08:36:01;;;;;;;2.95;1.23;;;;;;;;;;5052584;28;20205;-30
2023/07/14 08:38:28;;;;;;;2.17;0.93;;;;;;;;;;5053117;28;20222;-30
2023/07/14 08:40:58;;;;;;;3.55;1.60;;;;;;;;;;5053030;28;20636;-32
2023/07/14 08:43:30;;;;;;;2.95;1.48;;;;;;;;;;5053303;28;20205;-32
2023/07/14 08:46:03;;;;;;;1.52;1.15;;;;;;;;;;5053421;28;20194;-28
2023/07/14 08:48:34;;;;;;;2.67;1.15;;;;;;;;;;5052505;28;20291;-31
2023/07/14 08:51:04;;;;;;;1.70;1.25;;;;;;;;;;5053009;28;20194;-31
2023/07/14 08:53:33;;;;;;;2.13;1.52;;;;;;;;;;5053524;28;20285;-32
2023/07/14 08:59:05;;;;;;;2.92;1.40;;;;;;;;;;5053491;28;20224;-31
2023/07/14 09:01:37;;;;;;;1.52;1.33;;;;;;;;;;5053002;28;20233;-30
2023/07/14 09:04:07;;;;;;;1.75;1.30;;;;;;;;;;5052343;28;20216;-28
2023/07/14 09:06:35;;;;;;;3.17;1.15;;;;;;;;;;5052180;28;20668;-32
2023/07/14 09:09:03;;;;;;;1.83;1.20;;;;;;;;;;5053175;28;20230;-29
2023/07/14 09:11:39;;;;;;;2.38;1.00;;;;;;;;;;5052488;28;20201;-32
2023/07/14 09:14:12;;;;;;;1.10;1.10;;;;;;;;;;5053136;28;20193;-31
2023/07/14 09:16:44;;;;;;;3.42;1.35;;;;;;;;;;5053048;28;20197;-31
2023/07/14 09:19:16;;;;;;;0.98;0.98;;;;;;;;;;5053747;28;20232;-31
2023/07/14 09:21:48;;;;;;;2.35;1.25;;;;;;;;;;5054972;28;20210;-32
2023/07/14 09:24:16;;;;;;;8.05;1.70;;;;;;;;;;5054184;28;20190;-32
2023/07/14 09:26:45;;;;;;;2.67;1.38;;;;;;;;;;5051338;28;20212;-34
2023/07/14 09:29:14;;;;;;;1.73;1.30;;;;;;;;;;5051978;28;20711;-29
2023/07/14 09:31:44;;;;;;;4.70;1.27;;;;;;;;;;5051779;28;20743;-31
2023/07/14 09:34:14;;;;;;;1.27;1.17;;;;;;;;;;5051275;28;20190;-33
2023/07/14 09:36:41;;;;;;;3.17;1.45;;;;;;;;;;5051989;28;20216;-34
2023/07/14 09:39:14;;;;;;;1.02;1.02;;;;;;;;;;5051825;28;20222;-30
2023/07/14 09:41:41;;;;;;;3.10;1.50;;;;;;;;;;5049894;28;20214;-31
2023/07/14 09:44:10;;;;;;;3.55;1.30;;;;;;;;;;5051636;28;20271;-32
2023/07/14 09:46:38;;;;;;;1.63;1.52;;;;;;;;;;5051281;28;20209;-29
2023/07/14 09:49:12;;;;;;;1.80;1.50;;;;;;;;;;5051572;28;20233;-31
2023/07/14 09:51:40;;;;;;;2.28;1.20;;;;;;;;;;5050788;28;20213;-29
2023/07/14 09:54:08;;;;;;;6.47;1.50;;;;;;;;;;5051554;28;20576;-31
2023/07/14 09:56:37;;;;;;;1.85;1.27;;;;;;;;;;5048954;28;20214;-31
2023/07/14 09:59:05;;;;;;;5.38;1.42;;;;;;;;;;5051248;28;20225;-31
2023/07/14 10:01:33;;;;;;;3.25;1.40;;;;;;;;;;5051301;28;20703;-31
2023/07/14 10:04:08;;;;;;;3.72;1.38;;;;;;;;;;5051624;28;20206;-29
2023/07/14 10:06:36;;;;;;;2.83;1.30;;;;;;;;;;5050187;28;20247;-30
2023/07/14 10:09:08;;;;;;;1.38;1.27;;;;;;;;;;5050816;28;20317;-31
2023/07/14 10:11:40;;;;;;;1.45;1.35;;;;;;;;;;5050053;28;20186;-29
2023/07/14 10:14:19;;;;;;;1.60;0.90;;;;;;;;;;5050777;28;20182;-31
2023/07/14 10:16:47;;;;;;;1.35;1.25;;;;;;;;;;5051102;28;20190;-32
2023/07/14 10:19:15;;;;;;;1.77;1.10;;;;;;;;;;5050986;28;20356;-31
2023/07/14 10:21:51;;;;;;;1.55;1.45;;;;;;;;;;5050584;28;20226;-31
2023/07/14 10:24:20;;;;;;;4.22;1.17;;;;;;;;;;5051154;28;20201;-30
2023/07/14 10:31:53;;;;;;;1.92;1.40;;;;;;;;;;5052600;28;20287;-25
2023/07/14 10:34:29;;;;;;;5.53;1.40;;;;;;;;;;5054191;28;20209;-27
2023/07/14 10:37:00;;;;;;;2.45;1.25;;;;;;;;;;5054688;28;20204;-25
2023/07/14 10:52:25;;;;;;;1.33;0.98;;;;;;;;;;5052623;28;20225;-24
2023/07/14 10:54:54;;;;;;;2.30;1.30;;;;;;;;;;5054133;28;20189;-25
2023/07/14 11:10:24;;;;;;;1.42;1.13;;;;;;;;;;5051955;28;20228;-23
2023/07/14 11:12:55;;;;;;;0.93;0.90;;;;;;;;;;5054003;28;20200;-24
2023/07/14 11:15:25;;;;;;;1.30;1.20;;;;;;;;;;5054410;28;20235;-26
2023/07/14 11:30:48;;;;;;;1.73;1.20;;;;;;;;;;5052024;28;20221;-26
2023/07/14 11:33:20;;;;;;;1.92;1.20;;;;;;;;;;5053607;28;20273;-27
2023/07/14 11:35:51;;;;;;;2.97;1.17;;;;;;;;;;5054438;28;20204;-26
2023/07/14 11:51:09;;;;;;;1.98;1.10;;;;;;;;;;5051383;28;20590;-25
2023/07/14 11:53:36;;;;;;;3.33;1.30;;;;;;;;;;5053227;28;20631;-26
2023/07/14 11:56:18;;;;;;;1.92;1.30;;;;;;;;;;5052718;28;20231;-27
2023/07/14 12:11:47;;;;;;;1.50;1.40;;;;;;;;;;5055220;28;20232;-27
2023/07/14 12:14:31;;;;;;;1.83;1.15;;;;;;;;;;5056898;28;20221;-24
2023/07/14 12:16:59;;;;;;;5.97;1.42;;;;;;;;;;5056440;28;20185;-27
2023/07/14 12:32:18;;;;;;;1.92;1.40;;;;;;;;;;5073617;28;20224;-24
2023/07/14 12:34:46;;;;;;;2.22;1.17;;;;;;;;;;5076278;28;20534;-30
2023/07/14 12:37:16;;;;;;;2.83;1.23;;;;;;;;;;5076031;28;20231;-31
2023/07/14 12:50:03;;;;;;;2.55;1.50;;;;;;;;;;5054121;28;20562;-25
2023/07/14 12:52:31;;;;;;;1.85;1.33;;;;;;;;;;5056186;28;20231;-26
2023/07/14 12:55:00;;;;;;;1.75;1.45;;;;;;;;;;5056356;28;20272;-26
2023/07/14 13:10:21;;;;;;;2.40;1.63;;;;;;;;;;5092844;28;20224;-25
2023/07/14 13:12:49;;;;;;;3.13;1.33;;;;;;;;;;5095811;28;20197;-24
2023/07/14 13:15:17;;;;;;;2.28;1.38;;;;;;;;;;5095713;28;20215;-25
2023/07/14 13:30:37;;;;;;;2.03;1.63;;;;;;;;;;5053290;28;20290;-24
2023/07/14 13:33:05;;;;;;;3.78;1.30;;;;;;;;;;5054990;28;20212;-24
2023/07/14 13:35:33;;;;;;;3.35;1.20;;;;;;;;;;5055107;28;20212;-23
2023/07/14 13:50:53;;;;;;;1.40;1.30;;;;;;;;;;5052938;28;20244;-25
2023/07/14 13:53:20;;;;;;;3.58;1.30;;;;;;;;;;5054523;28;20198;-23
2023/07/14 13:55:47;;;;;;;2.75;1.20;;;;;;;;;;5054249;28;20658;-26
2023/07/14 14:11:08;;;;;;;5.35;1.80;;;;;;;;;;5052663;28;20289;-26
2023/07/14 14:13:35;;;;;;;2.28;1.35;;;;;;;;;;5055217;28;20209;-25
2023/07/14 14:16:03;;;;;;;2.17;1.42;;;;;;;;;;5054754;28;20206;-23
2023/07/14 14:31:23;;;;;;;1.60;1.20;;;;;;;;;;5052651;28;20221;-24
2023/07/14 14:33:50;;;;;;;1.95;1.40;;;;;;;;;;5053819;28;20216;-25
2023/07/14 14:36:17;;;;;;;2.15;1.50;;;;;;;;;;5054083;28;20205;-24
2023/07/14 14:51:30;;;;;;;1.50;1.40;;;;;;;;;;5091111;28;20220;-25
2023/07/14 14:53:57;;;;;;;2.65;1.73;;;;;;;;;;5094489;28;20200;-26
2023/07/14 14:56:26;;;;;;;1.73;1.60;;;;;;;;;;5093807;28;20260;-25
2023/07/14 15:11:47;;;;;;;4.07;1.50;;;;;;;;;;5052209;28;20243;-22
2023/07/14 15:14:23;;;;;;;7.22;1.67;;;;;;;;;;5053696;28;20219;-25
2023/07/14 15:16:51;;;;;;;2.92;2.03;;;;;;;;;;5053942;28;20667;-24
2023/07/14 15:32:06;;;;;;;2.72;1.50;;;;;;;;;;5050363;28;20232;-24
2023/07/14 15:34:33;;;;;;;1.45;1.33;;;;;;;;;;5053466;28;20213;-26
2023/07/14 15:37:00;;;;;;;1.63;1.52;;;;;;;;;;5053366;28;20216;-27
2023/07/14 15:52:21;;;;;;;4.50;1.70;;;;;;;;;;5054418;28;20230;-22
2023/07/14 15:54:48;;;;;;;1.88;1.63;;;;;;;;;;5057268;28;20240;-26
2023/07/14 15:57:17;;;;;;;3.55;1.50;;;;;;;;;;5057337;28;20217;-25
2023/07/14 16:10:09;;;;;;;1.83;1.70;;;;;;;;;;5053490;28;20220;-31
2023/07/14 16:12:37;;;;;;;2.03;1.63;;;;;;;;;;5056780;28;20228;-37
2023/07/14 16:15:08;;;;;;;3.33;1.75;;;;;;;;;;5056904;28;20197;-28
2023/07/14 16:30:29;;;;;;;2.70;1.30;;;;;;;;;;5313170;23;20254;-28
2023/07/14 16:32:56;;;;;;;1.65;1.35;;;;;;;;;;5076788;28;20201;-28
2023/07/14 16:35:24;;;;;;;3.58;1.80;;;;;;;;;;5076557;28;20256;-28
2023/07/14 16:37:52;;;;;;;2.80;1.60;;;;;;;;;;5076031;28;20224;-28
2023/07/14 16:40:23;;;;;;;6.93;5.05;;;;;;;;;;5074474;28;20207;-27
2023/07/14 16:42:51;;;;;;;1.65;1.55;;;;;;;;;;5075180;28;20245;-31
2023/07/14 16:45:19;;;;;;;3.47;1.60;;;;;;;;;;5075349;28;20219;-30
2023/07/14 16:47:48;;;;;;;3.53;1.40;;;;;;;;;;5075264;28;20225;-30
2023/07/14 16:50:17;;;;;;;1.83;1.40;;;;;;;;;;5074645;28;20484;-30
2023/07/14 16:52:45;;;;;;;3.58;1.60;;;;;;;;;;5075246;28;20483;-31
2023/07/14 16:55:16;;;;;;;1.77;1.67;;;;;;;;;;5074077;28;20213;-32
2023/07/14 16:57:44;;;;;;;3.47;1.52;;;;;;;;;;5074387;28;20276;-29
2023/07/14 17:00:25;;;;;;;1.85;1.75;;;;;;;;;;5072997;28;20209;-28
2023/07/14 17:02:54;;;;;;;3.08;1.65;;;;;;;;;;5073041;28;20220;-30
2023/07/14 17:05:24;;;;;;;2.50;1.83;;;;;;;;;;5072269;28;20208;-31
2023/07/14 17:07:51;;;;;;;2.00;1.50;;;;;;;;;;5072352;28;20229;-30
2023/07/14 17:10:19;;;;;;;1.70;1.60;;;;;;;;;;5072622;28;20201;-29
2023/07/14 17:12:46;;;;;;;3.40;1.60;;;;;;;;;;5072832;28;20332;-28
2023/07/14 17:15:13;;;;;;;4.05;1.60;;;;;;;;;;5074419;28;20197;-29
2023/07/14 17:17:40;;;;;;;8.25;2.25;;;;;;;;;;5074516;28;20201;-29
2023/07/14 17:20:12;;;;;;;8.48;1.70;;;;;;;;;;5073191;28;20209;-29
2023/07/14 17:22:41;;;;;;;4.45;2.42;;;;;;;;;;5073188;28;20223;-30
2023/07/14 17:25:22;;;;;;;2.45;1.50;;;;;;;;;;5071917;28;20209;-31
2023/07/14 17:27:49;;;;;;;1.48;1.33;;;;;;;;;;5073266;28;20224;-32
2023/07/14 17:30:19;;;;;;;1.80;1.23;;;;;;;;;;5073431;28;20252;-28
2023/07/14 17:32:47;;;;;;;2.17;1.50;;;;;;;;;;5072257;28;20185;-28
2023/07/14 17:35:16;;;;;;;3.42;1.50;;;;;;;;;;5071537;28;20296;-29
2023/07/14 17:37:44;;;;;;;1.55;1.45;;;;;;;;;;5071483;28;20213;-28
2023/07/14 17:40:21;;;;;;;5.45;1.58;;;;;;;;;;5071180;28;20212;-28
2023/07/14 17:42:48;;;;;;;2.33;2.05;;;;;;;;;;5071787;28;20204;-29
2023/07/14 17:45:17;;;;;;;2.53;1.60;;;;;;;;;;5071607;28;20205;-32
2023/07/14 17:47:44;;;;;;;1.90;1.80;;;;;;;;;;5071020;28;20564;-31
2023/07/14 17:50:11;;;;;;;1.70;1.60;;;;;;;;;;5071426;28;20351;-32
2023/07/14 17:52:40;;;;;;;3.00;1.83;;;;;;;;;;5071435;28;20285;-32
2023/07/14 17:55:17;;;;;;;2.05;1.67;;;;;;;;;;5070303;28;20655;-28
2023/07/14 17:57:44;;;;;;;2.65;1.83;;;;;;;;;;5070989;28;20209;-32
2023/07/14 18:00:14;;;;;;;1.98;1.63;;;;;;;;;;5071344;28;20216;-31
2023/07/14 18:02:42;;;;;;;1.83;1.73;;;;;;;;;;5070688;28;20520;-31
2023/07/14 18:05:14;;;;;;;1.45;1.35;;;;;;;;;;5070635;28;20209;-32
2023/07/14 18:07:43;;;;;;;2.25;2.10;;;;;;;;;;5071217;28;20205;-30
2023/07/14 18:10:11;;;;;;;1.95;1.70;;;;;;;;;;5070676;28;20211;-31
2023/07/14 18:12:40;;;;;;;2.70;1.55;;;;;;;;;;5070938;28;20197;-30
2023/07/14 18:15:15;;;;;;;1.88;1.40;;;;;;;;;;5071089;28;20200;-27
2023/07/14 18:17:42;;;;;;;3.05;1.45;;;;;;;;;;5070939;28;20216;-31
2023/07/14 18:20:12;;;;;;;2.10;1.70;;;;;;;;;;5070630;28;20212;-28
2023/07/14 18:22:39;;;;;;;1.35;1.25;;;;;;;;;;5071187;28;20237;-31
2023/07/14 18:25:14;;;;;;;3.22;2.95;;;;;;;;;;5069618;28;20323;-33
2023/07/14 18:27:41;;;;;;;7.65;6.38;;;;;;;;;;5070380;28;20276;-29
2023/07/14 18:30:14;;;;;;;2.78;2.50;;;;;;;;;;5070498;28;20213;-29
2023/07/14 18:32:43;;;;;;;2.85;2.50;;;;;;;;;;5070752;28;20196;-32
2023/07/14 18:35:22;;;;;;;1.98;1.77;;;;;;;;;;5070242;28;20201;-31
2023/07/14 18:37:50;;;;;;;4.53;2.05;;;;;;;;;;5070603;28;20228;-30
2023/07/14 18:40:19;;;;;;;2.55;1.48;;;;;;;;;;5070459;28;20266;-31
2023/07/14 18:42:47;;;;;;;3.50;3.10;;;;;;;;;;5070671;28;20221;-30
2023/07/14 18:45:16;;;;;;;6.03;5.43;;;;;;;;;;5070568;28;20211;-28
2023/07/14 18:47:43;;;;;;;5.85;5.25;;;;;;;;;;5070658;28;20211;-28
2023/07/14 18:50:11;;;;;;;4.60;1.77;;;;;;;;;;5069864;28;20209;-29
2023/07/14 18:52:39;;;;;;;2.30;2.10;;;;;;;;;;5070500;28;20201;-31
2023/07/14 18:55:06;;;;;;;3.20;2.10;;;;;;;;;;5068901;28;20278;-29
2023/07/14 18:57:37;;;;;;;2.28;1.70;;;;;;;;;;5070030;28;20222;-31
2023/07/14 19:00:08;;;;;;;2.33;2.13;;;;;;;;;;5070568;28;20247;-28
2023/07/14 19:02:37;;;;;;;2.17;2.08;;;;;;;;;;5070308;28;20299;-32
2023/07/14 19:05:08;;;;;;;3.13;2.20;;;;;;;;;;5069808;28;20205;-30
2023/07/14 19:07:35;;;;;;;1.65;1.52;;;;;;;;;;5069613;28;20272;-30
2023/07/14 19:10:04;;;;;;;2.65;1.65;;;;;;;;;;5069937;28;20207;-29
2023/07/14 19:12:33;;;;;;;3.00;2.55;;;;;;;;;;5070327;28;20215;-27
2023/07/14 19:15:02;;;;;;;4.80;2.08;;;;;;;;;;5074676;28;20243;-28
2023/07/14 19:17:29;;;;;;;1.70;1.60;;;;;;;;;;5074531;28;20487;-29
2023/07/14 19:19:56;;;;;;;2.63;1.80;;;;;;;;;;5074020;28;20208;-31